Time;durP1;ratioP1;P1;durP2;ratioP2;P2;SDS_P1;SDS_P2;PMS_P1;PMS_P2;Temp;Humidity;BMP_temperature;BMP_pressure;BME280_temperature;BME280_humidity;BME280_pressure;Samples;Min_cycle;Max_cycle;Signal;HPM_P1;HPM_P2
2022/12/27 00:02:03;;;;;;;;;;;2.30;99.90;;;;;;5040611;28;19917;-63
2022/12/27 00:04:29;;;;;;;;;;;2.00;99.90;;;;;;5044948;28;19919;-64
2022/12/27 00:06:55;;;;;;;;;;;1.90;99.90;;;;;;5048305;28;20275;-64
2022/12/27 00:09:20;;;;;;;;;;;1.90;99.90;;;;;;5047516;28;19921;-64
2022/12/27 00:11:46;;;;;;;;;;;2.00;99.90;;;;;;5042391;28;19913;-64
2022/12/27 00:14:11;;;;;;;;;;;2.00;99.90;;;;;;5045266;28;20383;-63
2022/12/27 00:16:37;;;;;;;;;;;2.10;99.90;;;;;;5049386;28;19913;-62
2022/12/27 00:19:03;;;;;;;;;;;2.20;99.90;;;;;;5046900;28;19924;-63
2022/12/27 00:21:29;;;;;;;;;;;2.30;99.90;;;;;;5048911;28;19920;-63
2022/12/27 00:23:56;;;;;;;;;;;2.30;99.90;;;;;;5051136;28;19978;-64
2022/12/27 00:26:26;;;;;;;;;;;2.40;99.90;;;;;;5050534;28;19913;-64
2022/12/27 00:28:51;;;;;;;;;;;2.40;99.90;;;;;;5049937;28;19912;-64
2022/12/27 00:31:18;;;;;;;;;;;2.50;99.90;;;;;;5043336;28;19920;-64
2022/12/27 00:33:44;;;;;;;;;;;2.50;99.90;;;;;;5042531;28;19920;-63
2022/12/27 00:36:11;;;;;;;;;;;2.30;99.90;;;;;;5048455;28;19919;-64
2022/12/27 00:38:36;;;;;;;;;;;2.10;99.90;;;;;;5045755;28;19917;-64
2022/12/27 00:41:02;;;;;;;;;;;1.90;99.90;;;;;;5046425;28;19920;-64
2022/12/27 00:43:28;;;;;;;;;;;1.60;99.90;;;;;;5045472;28;20337;-64
2022/12/27 00:45:53;;;;;;;;;;;1.70;99.90;;;;;;5048537;28;19956;-64
2022/12/27 00:48:19;;;;;;;;;;;1.80;99.90;;;;;;5044611;28;19917;-64
2022/12/27 00:50:44;;;;;;;;;;;1.80;99.90;;;;;;5039989;28;19921;-64
2022/12/27 00:53:10;;;;;;;;;;;1.80;99.90;;;;;;5047413;28;19917;-64
2022/12/27 00:55:36;;;;;;;;;;;1.80;99.90;;;;;;5042044;28;19971;-64
2022/12/27 00:58:01;;;;;;;;;;;1.80;99.90;;;;;;5041785;28;19948;-63
2022/12/27 01:00:27;;;;;;;;;;;1.80;99.90;;;;;;5044947;28;20787;-64
2022/12/27 01:02:52;;;;;;;;;;;1.90;99.90;;;;;;5041615;28;19916;-64
2022/12/27 01:05:18;;;;;;;;;;;1.90;99.90;;;;;;5045561;28;20402;-63
2022/12/27 01:07:43;;;;;;;;;;;1.90;99.90;;;;;;5051537;28;19947;-63
2022/12/27 01:10:09;;;;;;;;;;;2.00;99.90;;;;;;5044632;28;19936;-63
2022/12/27 01:12:34;;;;;;;;;;;2.00;99.90;;;;;;5047000;28;19913;-63
2022/12/27 01:15:00;;;;;;;;;;;2.00;99.90;;;;;;5047501;28;19913;-64
2022/12/27 01:17:27;;;;;;;;;;;2.00;99.90;;;;;;5047057;28;19916;-64
2022/12/27 01:19:53;;;;;;;;;;;2.00;99.90;;;;;;5049071;28;19919;-64
2022/12/27 01:22:18;;;;;;;;;;;2.10;99.90;;;;;;5052015;28;19917;-64
2022/12/27 01:24:44;;;;;;;;;;;2.10;99.90;;;;;;5046590;28;20002;-64
2022/12/27 01:27:09;;;;;;;;;;;2.10;99.90;;;;;;5050605;28;19913;-63
2022/12/27 01:29:34;;;;;;;;;;;2.30;99.90;;;;;;5046403;28;19932;-64
2022/12/27 01:32:00;;;;;;;;;;;2.30;99.90;;;;;;5042025;28;20430;-64
2022/12/27 01:34:25;;;;;;;;;;;2.30;99.90;;;;;;5047526;28;19921;-63
2022/12/27 01:36:51;;;;;;;;;;;2.50;99.90;;;;;;5051951;28;19923;-63
2022/12/27 01:39:16;;;;;;;;;;;2.70;99.90;;;;;;5047531;28;19925;-64
2022/12/27 01:44:48;;;;;;;;;;;2.90;99.90;;;;;;5012809;28;19917;-63
2022/12/27 01:47:28;;;;;;;;;;;3.00;99.90;;;;;;5049614;28;19923;-63
2022/12/27 01:49:57;;;;;;;;;;;2.80;99.90;;;;;;5042661;28;19913;-64
2022/12/27 01:52:23;;;;;;;;;;;3.30;99.90;;;;;;5047038;28;19920;-64
2022/12/27 01:54:49;;;;;;;;;;;3.50;99.90;;;;;;5049067;28;19913;-64
2022/12/27 01:57:14;;;;;;;;;;;3.60;99.90;;;;;;5066776;28;20022;-64
2022/12/27 01:59:40;;;;;;;;;;;3.60;99.90;;;;;;5044325;28;20389;-64
2022/12/27 02:02:06;;;;;;;;;;;3.60;99.90;;;;;;5044659;28;20445;-64
2022/12/27 02:04:33;;;;;;;;;;;3.90;99.90;;;;;;5049771;28;19917;-64
2022/12/27 02:06:59;;;;;;;;;;;4.00;99.90;;;;;;5051993;28;19966;-64
2022/12/27 02:09:43;;;;;;;;;;;4.20;99.90;;;;;;5050753;28;20341;-64
2022/12/27 02:12:09;;;;;;;;;;;4.20;99.90;;;;;;5046731;28;19966;-64
2022/12/27 02:14:37;;;;;;;;;;;4.20;99.90;;;;;;5047186;28;19919;-64
2022/12/27 02:17:05;;;;;;;;;;;4.30;99.90;;;;;;5044393;28;19917;-64
2022/12/27 02:19:39;;;;;;;;;;;4.30;99.90;;;;;;5049717;28;19936;-64
2022/12/27 02:22:04;;;;;;;;;;;4.50;99.90;;;;;;5045890;28;19913;-64
2022/12/27 02:24:36;;;;;;;;;;;4.50;99.90;;;;;;5044562;28;20312;-63
2022/12/27 02:27:28;;;;;;;;;;;4.50;99.90;;;;;;5047938;28;19978;-64
2022/12/27 02:29:58;;;;;;;;;;;4.60;99.90;;;;;;5047243;28;19920;-64
2022/12/27 02:32:28;;;;;;;;;;;4.50;99.90;;;;;;5049261;28;19916;-64
2022/12/27 02:35:05;;;;;;;;;;;4.40;99.90;;;;;;5043504;28;19913;-64
2022/12/27 02:37:33;;;;;;;;;;;4.40;99.90;;;;;;5047893;28;19979;-64
2022/12/27 02:53:02;;;;;;;;;;;4.60;99.90;;;;;;5047705;28;20340;-63
2022/12/27 02:53:45;;;;;;;;;;;;;;;;;;5050000;28;19986;-64
2022/12/27 02:58:55;;;;;;;;;;;;;;;;;;5046388;28;19970;-63
2022/12/27 03:04:16;;;;;;;;;;;4.50;99.90;;;;;;5041512;28;20027;-63
2022/12/27 03:06:42;;;;;;;;;;;;;;;;;;5049889;28;20004;-64
2022/12/27 03:09:08;;;;;;;;;;;;;;;;;;5049580;28;20008;-63
2022/12/27 03:17:22;;;;;;;;;;;4.80;99.90;;;;;;5043821;28;19920;-64
2022/12/27 03:25:30;;;;;;;;;;;4.80;99.90;;;;;;5045991;28;19920;-63
2022/12/27 03:33:35;;;;;;;;;;;4.90;99.90;;;;;;5045062;28;19924;-63
2022/12/27 03:39:02;;;;;;;;;;;5.00;99.90;;;;;;5050475;28;20298;-64
2022/12/27 03:44:24;;;;;;;;;;;5.00;99.90;;;;;;5046372;28;20420;-64
2022/12/27 03:46:56;;;;;;;;;;;4.90;99.90;;;;;;5040102;28;19944;-64
2022/12/27 03:49:45;;;;;;;;;;;4.90;99.90;;;;;;5045723;28;19915;-64
2022/12/27 03:52:15;;;;;;;;;;;4.90;99.90;;;;;;5048892;28;19924;-64
2022/12/27 03:54:42;;;;;;;;;;;5.00;99.90;;;;;;5044226;28;19924;-64
2022/12/27 03:57:13;;;;;;;;;;;4.90;99.90;;;;;;5041334;28;19909;-63
2022/12/27 03:59:38;;;;;;;;;;;4.90;99.90;;;;;;5048044;28;19916;-63
2022/12/27 04:02:04;;;;;;;;;;;5.00;99.90;;;;;;5046761;28;19991;-63
2022/12/27 04:04:30;;;;;;;;;;;5.00;99.90;;;;;;5044052;28;19924;-64
2022/12/27 04:06:55;;;;;;;;;;;4.80;99.90;;;;;;5063752;28;19917;-64
2022/12/27 04:36:43;;;;;;;;;;;5.00;99.90;;;;;;5067495;28;20329;-70
2022/12/27 04:39:08;;;;;;;;;;;5.00;99.90;;;;;;5067869;28;19916;-70
2022/12/27 04:55:20;;;;;;;;;;;5.10;99.90;;;;;;5068509;28;20424;-68
2022/12/27 04:57:45;;;;;;;;;;;5.10;99.90;;;;;;5069767;28;19912;-69
2022/12/27 05:02:56;;;;;;;;;;;5.10;99.90;;;;;;5067869;28;20436;-68
2022/12/27 05:05:22;;;;;;;;;;;5.10;99.90;;;;;;5068920;28;19917;-69
2022/12/27 05:16:00;;;;;;;;;;;5.20;99.90;;;;;;5069910;28;19938;-69
2022/12/27 05:18:25;;;;;;;;;;;5.20;99.90;;;;;;5072763;28;19913;-69
2022/12/27 05:20:51;;;;;;;;;;;5.30;99.90;;;;;;5068742;28;19913;-69
2022/12/27 05:26:00;;;;;;;;;;;5.30;99.90;;;;;;5070953;28;19957;-68
2022/12/27 05:28:26;;;;;;;;;;;5.30;99.90;;;;;;5066974;28;20309;-69
2022/12/27 05:30:51;;;;;;;;;;;5.30;99.90;;;;;;5067448;28;19912;-69
2022/12/27 05:33:17;;;;;;;;;;;5.40;99.90;;;;;;5065018;28;19916;-69
2022/12/27 05:35:42;;;;;;;;;;;5.40;99.90;;;;;;5064644;28;19913;-69
2022/12/27 05:38:08;;;;;;;;;;;5.40;99.90;;;;;;5071148;28;20023;-69
2022/12/27 05:40:33;;;;;;;;;;;5.30;99.90;;;;;;5067932;28;20267;-69
2022/12/27 05:42:59;;;;;;;;;;;5.20;99.90;;;;;;5076615;28;19958;-70
2022/12/27 05:45:25;;;;;;;;;;;5.20;99.90;;;;;;5069182;28;20002;-69
2022/12/27 05:47:51;;;;;;;;;;;5.20;99.90;;;;;;5065742;28;20309;-70
2022/12/27 05:50:17;;;;;;;;;;;5.30;99.90;;;;;;5067522;28;19916;-68
2022/12/27 05:52:43;;;;;;;;;;;5.30;99.90;;;;;;5068012;28;20400;-68
2022/12/27 05:55:08;;;;;;;;;;;5.10;99.90;;;;;;5068790;28;19912;-69
2022/12/27 05:57:34;;;;;;;;;;;5.10;99.90;;;;;;5069612;28;20357;-69
2022/12/27 06:00:00;;;;;;;;;;;5.10;99.90;;;;;;5072157;28;19982;-69
2022/12/27 06:02:25;;;;;;;;;;;5.10;99.90;;;;;;5061248;28;19925;-70
2022/12/27 06:04:50;;;;;;;;;;;5.10;99.90;;;;;;5069239;28;19917;-69
2022/12/27 06:07:16;;;;;;;;;;;5.10;99.90;;;;;;5071338;28;19913;-70
2022/12/27 06:09:42;;;;;;;;;;;5.10;99.90;;;;;;5070742;28;19920;-68
2022/12/27 06:12:07;;;;;;;;;;;5.00;99.90;;;;;;5070670;28;20350;-69
2022/12/27 06:14:33;;;;;;;;;;;4.90;99.90;;;;;;5070117;28;19982;-68
2022/12/27 06:16:58;;;;;;;;;;;5.00;99.90;;;;;;5069478;28;19952;-69
2022/12/27 06:19:24;;;;;;;;;;;4.70;99.90;;;;;;5073067;28;19916;-69
2022/12/27 06:21:49;;;;;;;;;;;4.80;99.90;;;;;;5063677;28;20053;-69
2022/12/27 06:24:15;;;;;;;;;;;4.70;99.90;;;;;;5071468;28;20424;-69
2022/12/27 06:26:41;;;;;;;;;;;4.70;99.90;;;;;;5069310;28;19923;-70
2022/12/27 06:29:10;;;;;;;;;;;4.70;99.90;;;;;;5068368;28;19912;-70
2022/12/27 06:31:36;;;;;;;;;;;4.70;99.90;;;;;;5063317;28;20393;-69
2022/12/27 06:34:01;;;;;;;;;;;4.60;99.90;;;;;;5068801;28;20069;-69
2022/12/27 06:36:29;;;;;;;;;;;4.60;99.90;;;;;;5068098;28;20042;-69
2022/12/27 06:38:55;;;;;;;;;;;4.50;99.90;;;;;;5071833;28;20015;-70
2022/12/27 06:41:20;;;;;;;;;;;4.60;99.90;;;;;;5066338;28;20423;-70
2022/12/27 06:43:45;;;;;;;;;;;4.70;99.90;;;;;;5067815;28;19916;-69
2022/12/27 06:46:13;;;;;;;;;;;4.80;99.90;;;;;;5068407;28;20401;-70
2022/12/27 06:48:38;;;;;;;;;;;4.60;99.90;;;;;;5073138;28;19908;-70
2022/12/27 06:51:05;;;;;;;;;;;4.50;99.90;;;;;;5065440;28;19923;-69
2022/12/27 06:53:30;;;;;;;;;;;4.50;99.90;;;;;;5068509;28;19955;-70
2022/12/27 06:55:56;;;;;;;;;;;4.30;99.90;;;;;;5070764;28;20274;-69
2022/12/27 06:58:21;;;;;;;;;;;4.20;99.90;;;;;;5067300;28;20001;-70
2022/12/27 07:00:47;;;;;;;;;;;4.10;99.90;;;;;;5062532;28;19974;-69
2022/12/27 07:03:12;;;;;;;;;;;3.90;99.90;;;;;;5066168;28;20270;-69
2022/12/27 07:05:38;;;;;;;;;;;3.80;99.90;;;;;;5068549;28;19912;-70
2022/12/27 07:08:03;;;;;;;;;;;3.80;99.90;;;;;;5069804;28;19924;-70
2022/12/27 07:10:29;;;;;;;;;;;3.80;99.90;;;;;;5067015;28;19912;-69
2022/12/27 07:12:55;;;;;;;;;;;3.60;99.90;;;;;;5070097;28;19951;-69
2022/12/27 07:15:21;;;;;;;;;;;3.70;99.90;;;;;;5071187;28;19918;-69
2022/12/27 07:17:46;;;;;;;;;;;3.80;99.90;;;;;;5070755;28;19913;-70
2022/12/27 07:20:12;;;;;;;;;;;3.80;99.90;;;;;;5071911;28;20484;-71
2022/12/27 07:22:37;;;;;;;;;;;3.80;99.90;;;;;;5070644;28;20332;-69
2022/12/27 07:25:03;;;;;;;;;;;3.60;99.90;;;;;;5069354;28;20172;-69
2022/12/27 07:27:31;;;;;;;;;;;3.60;99.90;;;;;;5071197;28;20433;-69
2022/12/27 07:29:57;;;;;;;;;;;3.40;99.90;;;;;;5072507;28;20007;-69
2022/12/27 07:32:22;;;;;;;;;;;3.10;99.90;;;;;;5076917;28;20392;-69
2022/12/27 07:34:47;;;;;;;;;;;2.90;99.90;;;;;;5069124;28;19916;-70
2022/12/27 07:37:13;;;;;;;;;;;2.70;99.90;;;;;;5070011;28;19965;-70
2022/12/27 07:39:38;;;;;;;;;;;2.70;99.90;;;;;;5067218;28;19982;-70
2022/12/27 07:42:04;;;;;;;;;;;2.70;99.90;;;;;;5063943;28;19912;-68
2022/12/27 07:44:29;;;;;;;;;;;2.70;99.90;;;;;;5069636;28;20374;-69
2022/12/27 07:46:55;;;;;;;;;;;2.70;99.90;;;;;;5061575;28;19915;-69
2022/12/27 07:49:21;;;;;;;;;;;2.70;99.90;;;;;;5067799;28;19913;-60
2022/12/27 07:51:46;;;;;;;;;;;2.70;99.90;;;;;;5067505;28;19916;-57
2022/12/27 07:54:12;;;;;;;;;;;2.80;99.90;;;;;;5065998;28;19919;-56
2022/12/27 07:56:37;;;;;;;;;;;2.90;99.90;;;;;;5068982;28;19909;-59
2022/12/27 07:59:03;;;;;;;;;;;2.80;99.90;;;;;;5069377;28;19938;-56
2022/12/27 08:02:02;;;;;;;;;;;2.60;99.90;;;;;;5066665;28;19909;-59
2022/12/27 08:04:15;;;;;;;;;;;;;;;;;;5071195;28;19924;-54
2022/12/27 08:06:41;;;;;;;;;;;;;;;;;;5068336;28;19912;-58
2022/12/27 08:09:06;;;;;;;;;;;;;;;;;;5071471;28;19920;-58
2022/12/27 08:11:32;;;;;;;;;;;;;;;;;;5066839;28;20356;-56
2022/12/27 08:13:58;;;;;;;;;;;;;;;;;;5063056;28;19928;-57
2022/12/27 08:16:24;;;;;;;;;;;;;;;;;;5067511;28;19912;-50
2022/12/27 08:18:51;;;;;;;;;;;;;;;;;;5068821;28;20386;-59
2022/12/27 08:21:17;;;;;;;;;;;;;;;;;;5065986;28;20453;-57
2022/12/27 08:23:43;;;;;;;;;;;;;;;;;;5064036;28;20030;-59
2022/12/27 08:26:09;;;;;;;;;;;;;;;;;;5071910;28;19972;-55
2022/12/27 08:28:35;;;;;;;;;;;;;;;;;;5065907;28;19955;-56
2022/12/27 08:31:01;;;;;;;;;;;;;;;;;;5071707;28;19920;-57
2022/12/27 08:33:27;;;;;;;;;;;;;;;;;;5071167;28;19939;-56
2022/12/27 08:35:53;;;;;;;;;;;;;;;;;;5069612;28;19996;-60
2022/12/27 08:38:18;;;;;;;;;;;;;;;;;;5066886;28;20275;-57
2022/12/27 08:40:44;;;;;;;;;;;;;;;;;;5060493;28;20321;-58
2022/12/27 08:43:10;;;;;;;;;;;;;;;;;;5069083;28;20015;-56
2022/12/27 08:45:36;;;;;;;;;;;;;;;;;;5063377;28;20003;-59
2022/12/27 08:48:02;;;;;;;;;;;;;;;;;;5067177;28;20290;-59
2022/12/27 08:50:28;;;;;;;;;;;;;;;;;;5068660;28;19913;-57
2022/12/27 08:52:54;;;;;;;;;;;;;;;;;;5068676;28;19913;-60
2022/12/27 08:55:20;;;;;;;;;;;;;;;;;;5070695;28;19915;-59
2022/12/27 08:57:45;;;;;;;;;;;;;;;;;;5071358;28;19931;-59
2022/12/27 09:00:11;;;;;;;;;;;;;;;;;;5069782;28;20175;-57
2022/12/27 09:02:37;;;;;;;;;;;;;;;;;;5069185;28;19970;-56
2022/12/27 09:05:03;;;;;;;;;;;;;;;;;;5071456;28;19909;-59
2022/12/27 09:07:28;;;;;;;;;;;2.40;99.90;;;;;;5070713;28;19919;-58
2022/12/27 09:09:54;;;;;;;;;;;3.90;99.90;;;;;;5069282;28;19919;-57
2022/12/27 09:12:19;;;;;;;;;;;3.90;99.90;;;;;;5069636;28;19913;-58
2022/12/27 09:14:45;;;;;;;;;;;4.10;99.90;;;;;;5067216;28;19913;-58
2022/12/27 09:17:10;;;;;;;;;;;4.00;99.90;;;;;;5071314;28;19909;-59
2022/12/27 09:19:36;;;;;;;;;;;4.10;99.90;;;;;;5070243;28;20428;-57
2022/12/27 09:22:01;;;;;;;;;;;4.20;99.90;;;;;;5064551;28;19920;-58
2022/12/27 09:24:27;;;;;;;;;;;4.30;99.90;;;;;;5070667;28;20266;-55
2022/12/27 09:26:52;;;;;;;;;;;4.40;99.90;;;;;;5069421;28;19909;-54
2022/12/27 09:29:18;;;;;;;;;;;4.50;99.90;;;;;;5073412;28;19915;-51
2022/12/27 09:31:43;;;;;;;;;;;4.70;99.90;;;;;;5073097;28;19917;-52
2022/12/27 09:34:12;;;;;;;;;;;4.80;99.90;;;;;;5074249;28;19921;-55
2022/12/27 09:36:38;;;;;;;;;;;4.90;99.90;;;;;;5074512;28;19951;-52
2022/12/27 09:39:04;;;;;;;;;;;5.10;99.90;;;;;;5074631;28;20477;-55
2022/12/27 09:41:32;;;;;;;;;;;5.20;99.90;;;;;;5071157;28;19913;-57
2022/12/27 09:44:03;;;;;;;;;;;5.60;99.90;;;;;;5073425;28;20332;-56
2022/12/27 09:46:37;;;;;;;;;;;5.70;99.90;;;;;;5072886;28;19913;-56
2022/12/27 09:49:03;;;;;;;;;;;5.70;99.90;;;;;;5074455;28;19916;-58
2022/12/27 09:51:31;;;;;;;;;;;5.90;99.90;;;;;;5066943;28;20402;-56
2022/12/27 09:53:57;;;;;;;;;;;6.00;99.90;;;;;;5073851;28;19908;-54
2022/12/27 09:56:24;;;;;;;;;;;6.20;99.90;;;;;;5065611;28;19942;-57
2022/12/27 09:58:51;;;;;;;;;;;6.30;99.90;;;;;;5071596;28;20003;-59
2022/12/27 10:01:49;;;;;;;;;;;6.30;99.90;;;;;;5073613;28;19913;-59
2022/12/27 10:04:16;;;;;;;;;;;6.40;99.90;;;;;;5052475;28;20384;-55
2022/12/27 10:06:48;;;;;;;;;;;6.60;99.90;;;;;;5073990;28;19908;-59
2022/12/27 10:09:24;;;;;;;;;;;6.60;99.90;;;;;;5069973;28;19965;-56
2022/12/27 10:11:49;;;;;;;;;;;6.70;99.90;;;;;;5072809;28;20390;-55
2022/12/27 10:14:25;;;;;;;;;;;6.80;99.90;;;;;;5073336;28;19935;-58
2022/12/27 10:16:58;;;;;;;;;;;7.00;99.90;;;;;;5070591;28;19991;-55
2022/12/27 10:19:24;;;;;;;;;;;7.20;99.90;;;;;;5072930;28;20372;-57
2022/12/27 10:21:55;;;;;;;;;;;7.30;99.90;;;;;;5066879;28;19927;-56
2022/12/27 10:24:31;;;;;;;;;;;7.50;99.90;;;;;;5068450;28;19967;-55
2022/12/27 10:26:56;;;;;;;;;;;7.50;99.90;;;;;;5067788;28;19912;-56
2022/12/27 10:29:23;;;;;;;;;;;7.60;99.90;;;;;;5070584;28;19961;-59
2022/12/27 10:31:48;;;;;;;;;;;7.60;99.90;;;;;;5072105;28;20324;-58
2022/12/27 10:36:44;;;;;;;;;;;7.80;99.90;;;;;;5065990;28;19932;-58
2022/12/27 10:39:17;;;;;;;;;;;7.90;99.90;;;;;;5071122;28;19928;-58
2022/12/27 10:41:49;;;;;;;;;;;8.00;99.90;;;;;;5071547;28;20401;-61
2022/12/27 10:44:15;;;;;;;;;;;8.10;99.90;;;;;;5071754;28;20012;-59
2022/12/27 10:46:42;;;;;;;;;;;8.20;99.90;;;;;;5073408;28;20472;-59
2022/12/27 10:49:19;;;;;;;;;;;8.10;99.90;;;;;;5072009;28;20022;-59
2022/12/27 10:51:44;;;;;;;;;;;8.00;99.90;;;;;;5079764;28;19916;-58
2022/12/27 10:54:14;;;;;;;;;;;7.90;99.90;;;;;;5091462;28;19961;-58
2022/12/27 10:56:41;;;;;;;;;;;7.90;99.90;;;;;;5077231;28;19924;-57
2022/12/27 10:59:23;;;;;;;;;;;7.90;99.90;;;;;;5071876;28;19919;-57
2022/12/27 11:02:01;;;;;;;;;;;7.90;99.90;;;;;;5071792;28;19917;-60
2022/12/27 11:04:27;;;;;;;;;;;8.10;99.90;;;;;;5061339;28;19975;-59
2022/12/27 11:07:12;;;;;;;;;;;8.30;99.90;;;;;;5064276;28;19920;-58
2022/12/27 11:09:38;;;;;;;;;;;8.40;99.90;;;;;;5067947;28;19995;-58
2022/12/27 11:12:23;;;;;;;;;;;8.60;99.90;;;;;;5067673;28;20361;-61
2022/12/27 11:14:56;;;;;;;;;;;8.70;99.90;;;;;;5064066;28;19913;-60
2022/12/27 11:17:34;;;;;;;;;;;8.80;99.90;;;;;;5064143;28;20465;-61
2022/12/27 11:20:02;;;;;;;;;;;9.00;99.90;;;;;;5074368;28;20030;-60
2022/12/27 11:22:27;;;;;;;;;;;9.10;99.90;;;;;;5072454;28;20274;-60
2022/12/27 11:24:54;;;;;;;;;;;9.30;99.90;;;;;;5064901;28;19923;-61
2022/12/27 11:27:25;;;;;;;;;;;9.20;99.90;;;;;;5072838;28;19912;-60
2022/12/27 11:29:51;;;;;;;;;;;9.10;99.90;;;;;;5071560;28;19919;-60
2022/12/27 11:32:17;;;;;;;;;;;9.10;99.90;;;;;;5066914;28;19913;-60
2022/12/27 11:34:44;;;;;;;;;;;9.00;99.90;;;;;;5066946;28;19916;-58
2022/12/27 11:37:13;;;;;;;;;;;9.00;99.90;;;;;;5068334;28;20526;-57
2022/12/27 11:39:46;;;;;;;;;;;9.00;99.90;;;;;;5066110;28;19917;-58
2022/12/27 11:42:32;;;;;;;;;;;9.00;99.90;;;;;;5067458;28;20503;-60
2022/12/27 11:45:06;;;;;;;;;;;9.00;99.90;;;;;;5056974;28;19917;-58
2022/12/27 11:47:39;;;;;;;;;;;9.00;99.90;;;;;;5083562;28;19917;-57
2022/12/27 11:50:14;;;;;;;;;;;9.00;99.90;;;;;;5067051;28;19916;-58
2022/12/27 11:52:58;;;;;;;;;;;9.00;99.90;;;;;;5070085;28;19917;-59
2022/12/27 11:55:37;;;;;;;;;;;9.00;99.90;;;;;;5071578;28;19970;-59
2022/12/27 11:58:16;;;;;;;;;;;8.90;99.90;;;;;;5064533;28;19982;-59
2022/12/27 12:00:45;;;;;;;;;;;8.90;99.90;;;;;;5064225;28;19942;-59
2022/12/27 12:03:16;;;;;;;;;;;8.80;99.90;;;;;;5062928;28;19968;-60
2022/12/27 12:06:00;;;;;;;;;;;8.70;99.90;;;;;;5070548;28;20408;-58
2022/12/27 12:08:38;;;;;;;;;;;8.70;99.90;;;;;;5064002;28;19920;-64
2022/12/27 12:11:36;;;;;;;;;;;8.60;99.90;;;;;;5062390;28;20379;-59
2022/12/27 12:14:01;;;;;;;;;;;8.70;99.90;;;;;;5035256;28;19921;-58
2022/12/27 12:16:36;;;;;;;;;;;8.80;99.90;;;;;;5064053;28;19919;-58
2022/12/27 12:19:01;;;;;;;;;;;8.90;99.90;;;;;;5067792;28;19909;-58
2022/12/27 12:21:49;;;;;;;;;;;9.00;99.90;;;;;;5067253;28;19919;-59
2022/12/27 12:24:17;;;;;;;;;;;9.20;99.90;;;;;;5067107;28;19920;-59
2022/12/27 12:27:07;;;;;;;;;;;9.30;99.90;;;;;;5067002;28;19923;-59
2022/12/27 12:29:35;;;;;;;;;;;9.30;99.90;;;;;;5063286;28;19984;-59
2022/12/27 12:32:21;;;;;;;;;;;9.30;99.90;;;;;;5065323;28;19923;-59
2022/12/27 12:34:50;;;;;;;;;;;9.10;99.90;;;;;;5064808;28;20371;-60
2022/12/27 12:37:24;;;;;;;;;;;9.10;99.90;;;;;;5062504;28;19916;-58
2022/12/27 12:39:55;;;;;;;;;;;9.10;99.90;;;;;;5068522;28;20058;-60
2022/12/27 12:42:36;;;;;;;;;;;9.20;99.90;;;;;;5069121;28;19970;-58
2022/12/27 12:45:20;;;;;;;;;;;9.30;99.90;;;;;;5060514;28;19984;-58
2022/12/27 12:48:04;;;;;;;;;;;9.40;99.90;;;;;;5063136;28;20306;-58
2022/12/27 12:50:39;;;;;;;;;;;9.40;99.90;;;;;;5064418;28;20003;-59
2022/12/27 12:53:21;;;;;;;;;;;9.50;99.90;;;;;;5074966;28;19913;-59
2022/12/27 12:55:56;;;;;;;;;;;9.50;99.90;;;;;;5072930;28;19921;-57
2022/12/27 12:58:25;;;;;;;;;;;9.60;99.90;;;;;;5078550;28;19957;-57
2022/12/27 13:00:50;;;;;;;;;;;9.60;99.90;;;;;;5065344;28;19912;-57
2022/12/27 13:03:32;;;;;;;;;;;9.70;99.90;;;;;;5070898;28;19921;-60
2022/12/27 13:06:12;;;;;;;;;;;9.60;99.90;;;;;;5068317;28;19944;-58
2022/12/27 13:08:49;;;;;;;;;;;9.70;99.90;;;;;;5089402;28;20007;-60
2022/12/27 13:11:24;;;;;;;;;;;9.60;99.90;;;;;;5077494;28;19938;-57
2022/12/27 13:13:53;;;;;;;;;;;9.60;99.90;;;;;;5081009;28;20370;-60
2022/12/27 13:16:24;;;;;;;;;;;9.70;99.90;;;;;;5078880;28;19921;-58
2022/12/27 13:18:58;;;;;;;;;;;9.80;99.90;;;;;;5072138;28;19920;-58
2022/12/27 13:21:36;;;;;;;;;;;9.80;99.90;;;;;;5074350;28;19943;-57
2022/12/27 13:24:08;;;;;;;;;;;9.90;99.90;;;;;;5072998;28;20011;-58
2022/12/27 13:26:33;;;;;;;;;;;9.70;99.90;;;;;;5072061;28;19924;-61
2022/12/27 13:28:58;;;;;;;;;;;9.70;99.90;;;;;;5072371;28;20413;-59
2022/12/27 13:31:47;;;;;;;;;;;9.90;99.90;;;;;;5069244;28;20371;-59
2022/12/27 13:34:13;;;;;;;;;;;10.00;99.90;;;;;;5069676;28;19912;-58
2022/12/27 13:36:38;;;;;;;;;;;10.10;99.90;;;;;;5076246;28;20386;-60
2022/12/27 13:39:16;;;;;;;;;;;10.10;99.90;;;;;;5073465;28;20606;-60
2022/12/27 13:41:51;;;;;;;;;;;10.10;99.90;;;;;;5072016;28;20520;-60
2022/12/27 13:44:16;;;;;;;;;;;9.90;99.90;;;;;;5077614;28;19981;-61
2022/12/27 13:46:41;;;;;;;;;;;9.90;99.90;;;;;;5074842;28;19956;-60
2022/12/27 13:49:19;;;;;;;;;;;10.00;99.90;;;;;;5077440;28;19912;-59
2022/12/27 13:51:46;;;;;;;;;;;10.10;99.90;;;;;;5072024;28;19917;-59
2022/12/27 13:54:30;;;;;;;;;;;10.10;99.90;;;;;;5073761;28;19957;-57
2022/12/27 13:57:01;;;;;;;;;;;10.20;99.90;;;;;;5071659;28;19938;-59
2022/12/27 13:59:45;;;;;;;;;;;10.20;99.90;;;;;;5078440;28;20017;-59
2022/12/27 14:02:17;;;;;;;;;;;10.10;99.90;;;;;;5068787;28;19919;-60
2022/12/27 14:05:01;;;;;;;;;;;10.00;99.90;;;;;;5068875;28;19924;-60
2022/12/27 14:07:43;;;;;;;;;;;10.00;99.90;;;;;;5059356;28;20011;-58
2022/12/27 14:10:16;;;;;;;;;;;9.90;99.90;;;;;;5071899;28;20404;-57
2022/12/27 14:12:44;;;;;;;;;;;9.90;99.90;;;;;;5067114;28;20440;-61
2022/12/27 14:15:15;;;;;;;;;;;9.80;99.90;;;;;;5066357;28;20424;-59
2022/12/27 14:17:55;;;;;;;;;;;9.80;99.90;;;;;;5076126;28;20034;-60
2022/12/27 14:20:31;;;;;;;;;;;9.80;99.90;;;;;;5072999;28;19940;-60
2022/12/27 14:23:12;;;;;;;;;;;9.80;99.90;;;;;;5073046;28;20316;-61
2022/12/27 14:25:37;;;;;;;;;;;9.80;99.90;;;;;;5068450;28;19920;-59
2022/12/27 14:28:23;;;;;;;;;;;9.70;99.90;;;;;;5074359;28;19921;-59
2022/12/27 14:31:07;;;;;;;;;;;9.70;99.90;;;;;;5079725;28;20389;-59
2022/12/27 14:33:47;;;;;;;;;;;9.60;99.90;;;;;;5075473;28;19945;-61
2022/12/27 14:36:18;;;;;;;;;;;9.80;99.90;;;;;;5071272;28;19916;-62
2022/12/27 14:39:02;;;;;;;;;;;9.60;99.90;;;;;;5072612;28;19912;-62
2022/12/27 14:41:45;;;;;;;;;;;9.50;99.90;;;;;;5082306;28;19915;-63
2022/12/27 14:44:34;;;;;;;;;;;9.40;99.90;;;;;;5088730;28;19912;-61
2022/12/27 14:47:18;;;;;;;;;;;9.40;99.90;;;;;;5081215;28;19987;-62
2022/12/27 14:49:55;;;;;;;;;;;9.30;99.90;;;;;;5092384;28;20320;-63
2022/12/27 14:52:36;;;;;;;;;;;9.30;99.90;;;;;;5074425;28;20433;-62
2022/12/27 14:55:05;;;;;;;;;;;9.20;99.90;;;;;;5070006;28;19966;-63
2022/12/27 14:57:30;;;;;;;;;;;9.10;99.90;;;;;;5072542;28;19916;-63
2022/12/27 15:00:16;;;;;;;;;;;9.10;99.90;;;;;;5072349;28;19917;-61
2022/12/27 15:02:57;;;;;;;;;;;9.00;99.90;;;;;;5080921;28;19974;-62
2022/12/27 15:05:22;;;;;;;;;;;9.00;99.90;;;;;;5091673;28;19909;-62
2022/12/27 15:08:05;;;;;;;;;;;8.90;99.90;;;;;;5087207;28;19908;-62
2022/12/27 15:10:36;;;;;;;;;;;8.80;99.90;;;;;;5065985;28;19915;-61
2022/12/27 15:13:10;;;;;;;;;;;8.80;99.90;;;;;;5071933;28;19916;-62
2022/12/27 15:15:42;;;;;;;;;;;8.70;99.90;;;;;;5086060;28;20251;-62
2022/12/27 15:18:17;;;;;;;;;;;8.60;99.90;;;;;;5091341;28;19918;-60
2022/12/27 15:20:50;;;;;;;;;;;8.60;99.90;;;;;;5090289;28;19908;-61
2022/12/27 15:23:27;;;;;;;;;;;8.60;99.90;;;;;;5091602;28;19916;-61
2022/12/27 15:25:52;;;;;;;;;;;8.50;99.90;;;;;;5091350;28;19915;-61
2022/12/27 15:28:18;;;;;;;;;;;8.40;99.90;;;;;;5085371;28;19912;-63
2022/12/27 15:31:01;;;;;;;;;;;8.40;99.90;;;;;;5071657;28;19912;-62
2022/12/27 15:33:37;;;;;;;;;;;8.30;99.90;;;;;;5071526;28;19919;-63
2022/12/27 15:36:07;;;;;;;;;;;8.30;99.90;;;;;;5071196;28;19924;-62
2022/12/27 15:38:32;;;;;;;;;;;8.30;99.90;;;;;;5071302;28;19909;-62
2022/12/27 15:41:07;;;;;;;;;;;8.30;99.90;;;;;;5076967;28;19913;-61
2022/12/27 15:43:32;;;;;;;;;;;8.20;99.90;;;;;;5090835;28;20014;-62
2022/12/27 15:46:30;;;;;;;;;;;8.10;99.90;;;;;;5088741;28;19987;-63
2022/12/27 15:49:14;;;;;;;;;;;8.10;99.90;;;;;;5067504;28;19919;-63
2022/12/27 15:51:42;;;;;;;;;;;8.10;99.90;;;;;;5090813;28;19916;-63
2022/12/27 15:54:15;;;;;;;;;;;8.00;99.90;;;;;;5073660;28;19908;-61
2022/12/27 15:56:50;;;;;;;;;;;8.00;99.90;;;;;;5086611;28;19974;-61
2022/12/27 15:59:36;;;;;;;;;;;8.00;99.90;;;;;;5083681;28;19915;-61
2022/12/27 16:02:18;;;;;;;;;;;7.90;99.90;;;;;;5088458;28;19919;-62
2022/12/27 16:04:52;;;;;;;;;;;7.90;99.90;;;;;;5089894;28;21473;-62
2022/12/27 16:07:38;;;;;;;;;;;7.80;99.90;;;;;;5070714;28;20007;-62
2022/12/27 16:10:22;;;;;;;;;;;7.80;99.90;;;;;;5058892;28;19916;-62
2022/12/27 16:12:48;;;;;;;;;;;7.70;99.90;;;;;;5067801;28;20390;-61
2022/12/27 16:15:32;;;;;;;;;;;7.70;99.90;;;;;;5075527;28;19919;-62
2022/12/27 16:17:57;;;;;;;;;;;7.60;99.90;;;;;;5090626;28;19915;-61
2022/12/27 16:20:23;;;;;;;;;;;7.60;99.90;;;;;;5089672;28;20723;-61
2022/12/27 16:22:48;;;;;;;;;;;7.60;99.90;;;;;;5090144;28;19916;-62
2022/12/27 16:25:20;;;;;;;;;;;7.60;99.90;;;;;;5090382;28;19915;-62
2022/12/27 16:27:51;;;;;;;;;;;7.60;99.90;;;;;;5077404;28;20003;-62
2022/12/27 16:30:33;;;;;;;;;;;7.60;99.90;;;;;;5081617;28;19963;-63
2022/12/27 16:32:59;;;;;;;;;;;7.50;99.90;;;;;;5082324;28;19913;-62
2022/12/27 16:35:25;;;;;;;;;;;7.50;99.90;;;;;;5081377;22;19966;-66